Esparreguera, Spain
Current Conditions -  °F | °C
As of 3:30 PM on Sunday 23 Nov 2014 (Local Time) from LELL Reporting Station
Few Clouds Few Clouds  
Wind Chill: 70°   Ceiling: Unl
Heat Index: 70°   Visibility: 6mi
Dew Point: 59°   Wind: 6mph
Humidity: 68%   Direction: 30°NNE
Pressure: 30.03"   Gusts: NA
Location:  41.53°N, 1.87°E
Report Text: LELL 231430Z 03005KT 340V100 9999 FEW035 21/15 Q1017 NOSIG
Loading
Personal Weather Stations






























Interactive Weather Map New forecast layout! Learn more

10-Day Weather Forecast

Advertisements
Track Severe Weather on mobile